Terminal Aerodrome Forecast
Issued by NWS Wakefield, VA

Home | Current Version | Previous Version | Text Only | Print | Product List | Glossary On
Versions: 1 2 3 4 5 6 7 8 9 10 11 12 13 14 15 16 17 18 19 20 21
562
FTUS41 KAKQ 280520
TAFSBY
TAF
KSBY 280520Z 2806/2906 19004KT P6SM BKN150
     FM281200 21007KT P6SM VCSH BKN040
     FM281800 20009KT 6SM -SHRA BKN060
     FM282200 21009KT P6SM BKN060
     FM290200 29004KT P6SM BKN045=

USA.gov is the U.S. government's official web portal to all federal, state and local government web resources and services.